Aérodrome :
LOGIN :

S'inscrire | Disclaimer

   EN    FR    IT 

 










Légende :    VFR   VFR Marginal   IFR   IFR Intensif   IFR Très Intensif
Visi : 
Plafond : 
>= 8 km
>= 3000ft
5 à 8 km
1000 à 3000 ft
1500m à 5 km
500 à 1000 ft
800 à 1500m
200 à 500 ft
< 800m
< 200 ft
Symboles :   Orages  Brouillard  Fortes neiges  Fortes précipitations  Vent > 20 kt
SIGMETs :   Divers  Orages  Givrage  Turbulence  Onde Orograph.  Cendres Volcan.






- Altitude de l'aérodrome : 138 ft
- Code IATA : RLG


ETNL - Rostock Laage

DERNIER METAR :
  • 180420Z 24010KT 9999 BKN018 BKN035 06/04 Q1010 WHT

METARs EXPIRÉS :
  • 180320Z 24011KT 9999 SCT020 BKN028 BKN100 06/04 Q1010 BLU
  • 180220Z 24010KT 9999 BKN020 06/04 Q1010 WHT
  • 180207Z 24009KT 9999 BKN020 BKN042 06/04 Q1010 WHT
  • 180120Z 23009KT 9999 SCT020 BKN040 06/04 Q1010 BLU

TAF TAF ETNL
Valide du 18 à 00h jusqu'au 18 à 12h UTC


172305Z 1800/1812 21015G25KT 9999 NSW SCT030
PROB30 1800/1812 23020G30KT 4000 SHRA BKN010 BKN025CB BY ETGL



MET'MAP, la Météo Aéronautique d'un coup d'oeil ! - Copyright ORBIFLY Décembre 2007 - Disclaimer

ORBIFLY MET'MAP TEAM :

Programmation & Développement : Alexandra Zaïnal
Sur une idée originale de : Baudouin d'Aumeries
Assistance à la programmation : Marc-Olivier Méhu
Soutien technique & logistique : Manuel Goepfert

Contact : metmap@orbifly.com




SOURCES & CREDITS :

   NOAA